sensor_id;sensor_type;location;lat;lon;timestamp;temperature;humidity
9223;DHT22;7557;51.698;3.942;2023-11-21T00:02:26;11.10;99.90
9223;DHT22;7557;51.698;3.942;2023-11-21T00:04:54;11.20;99.90
9223;DHT22;7557;51.698;3.942;2023-11-21T00:07:21;11.10;99.90
9223;DHT22;7557;51.698;3.942;2023-11-21T00:09:48;11.10;99.90
9223;DHT22;7557;51.698;3.942;2023-11-21T00:12:15;11.10;99.90
9223;DHT22;7557;51.698;3.942;2023-11-21T00:14:43;11.20;99.90
9223;DHT22;7557;51.698;3.942;2023-11-21T00:17:10;11.10;99.90
9223;DHT22;7557;51.698;3.942;2023-11-21T00:19:39;11.20;99.90
9223;DHT22;7557;51.698;3.942;2023-11-21T00:22:06;11.20;99.90
9223;DHT22;7557;51.698;3.942;2023-11-21T00:24:33;11.20;99.90
9223;DHT22;7557;51.698;3.942;2023-11-21T00:27:00;11.20;99.90
9223;DHT22;7557;51.698;3.942;2023-11-21T00:29:26;11.20;99.90
9223;DHT22;7557;51.698;3.942;2023-11-21T00:31:54;11.20;99.90
9223;DHT22;7557;51.698;3.942;2023-11-21T00:34:21;11.20;99.90
9223;DHT22;7557;51.698;3.942;2023-11-21T00:36:49;11.20;99.90
9223;DHT22;7557;51.698;3.942;2023-11-21T00:39:17;11.20;99.90
9223;DHT22;7557;51.698;3.942;2023-11-21T00:41:44;11.20;99.90
9223;DHT22;7557;51.698;3.942;2023-11-21T00:47:19;11.20;99.90
9223;DHT22;7557;51.698;3.942;2023-11-21T00:49:46;11.20;99.90
9223;DHT22;7557;51.698;3.942;2023-11-21T00:52:16;11.20;99.90
9223;DHT22;7557;51.698;3.942;2023-11-21T00:54:43;11.20;99.90
9223;DHT22;7557;51.698;3.942;2023-11-21T00:57:10;11.30;99.90
9223;DHT22;7557;51.698;3.942;2023-11-21T00:59:38;11.20;99.90
9223;DHT22;7557;51.698;3.942;2023-11-21T01:02:05;11.30;99.90
9223;DHT22;7557;51.698;3.942;2023-11-21T01:04:35;11.20;99.90
9223;DHT22;7557;51.698;3.942;2023-11-21T01:07:03;11.30;99.90
9223;DHT22;7557;51.698;3.942;2023-11-21T01:09:32;11.30;99.90
9223;DHT22;7557;51.698;3.942;2023-11-21T01:12:00;11.30;99.90
9223;DHT22;7557;51.698;3.942;2023-11-21T01:14:27;11.30;99.90
9223;DHT22;7557;51.698;3.942;2023-11-21T01:16:54;11.30;99.90
9223;DHT22;7557;51.698;3.942;2023-11-21T01:19:21;11.30;99.90
9223;DHT22;7557;51.698;3.942;2023-11-21T01:21:49;11.30;99.90
9223;DHT22;7557;51.698;3.942;2023-11-21T01:24:17;11.30;99.90
9223;DHT22;7557;51.698;3.942;2023-11-21T01:26:46;11.30;99.90
9223;DHT22;7557;51.698;3.942;2023-11-21T01:29:13;11.30;99.90
9223;DHT22;7557;51.698;3.942;2023-11-21T01:31:41;11.30;99.90
9223;DHT22;7557;51.698;3.942;2023-11-21T01:34:08;11.30;99.90
9223;DHT22;7557;51.698;3.942;2023-11-21T01:36:35;11.40;99.90
9223;DHT22;7557;51.698;3.942;2023-11-21T01:39:02;11.40;99.90
9223;DHT22;7557;51.698;3.942;2023-11-21T01:41:34;11.40;99.90
9223;DHT22;7557;51.698;3.942;2023-11-21T01:44:04;11.50;99.90
9223;DHT22;7557;51.698;3.942;2023-11-21T01:46:33;11.50;99.90
9223;DHT22;7557;51.698;3.942;2023-11-21T01:49:00;11.50;99.90
9223;DHT22;7557;51.698;3.942;2023-11-21T01:51:28;11.50;99.90
9223;DHT22;7557;51.698;3.942;2023-11-21T01:53:55;11.50;99.90
9223;DHT22;7557;51.698;3.942;2023-11-21T01:56:23;11.50;99.90
9223;DHT22;7557;51.698;3.942;2023-11-21T01:58:51;11.50;99.90
9223;DHT22;7557;51.698;3.942;2023-11-21T02:01:21;11.50;99.90
9223;DHT22;7557;51.698;3.942;2023-11-21T02:03:48;11.50;99.90
9223;DHT22;7557;51.698;3.942;2023-11-21T02:06:15;11.50;99.90
9223;DHT22;7557;51.698;3.942;2023-11-21T02:08:43;11.60;99.90
9223;DHT22;7557;51.698;3.942;2023-11-21T02:11:10;11.50;99.90
9223;DHT22;7557;51.698;3.942;2023-11-21T02:13:38;11.60;99.90
9223;DHT22;7557;51.698;3.942;2023-11-21T02:16:09;11.60;99.90
9223;DHT22;7557;51.698;3.942;2023-11-21T02:18:39;11.60;99.90
9223;DHT22;7557;51.698;3.942;2023-11-21T02:21:07;11.60;99.90
9223;DHT22;7557;51.698;3.942;2023-11-21T02:23:37;11.60;99.90
9223;DHT22;7557;51.698;3.942;2023-11-21T02:26:07;11.60;99.90
9223;DHT22;7557;51.698;3.942;2023-11-21T02:28:35;11.60;99.90
9223;DHT22;7557;51.698;3.942;2023-11-21T02:31:04;11.60;99.90
9223;DHT22;7557;51.698;3.942;2023-11-21T02:33:33;11.60;99.90
9223;DHT22;7557;51.698;3.942;2023-11-21T02:36:01;11.60;99.90
9223;DHT22;7557;51.698;3.942;2023-11-21T02:38:29;11.60;99.90
9223;DHT22;7557;51.698;3.942;2023-11-21T02:40:58;11.60;99.90
9223;DHT22;7557;51.698;3.942;2023-11-21T02:43:25;11.70;99.90
9223;DHT22;7557;51.698;3.942;2023-11-21T02:45:52;11.70;99.90
9223;DHT22;7557;51.698;3.942;2023-11-21T02:48:19;11.70;99.90
9223;DHT22;7557;51.698;3.942;2023-11-21T02:50:49;11.70;99.90
9223;DHT22;7557;51.698;3.942;2023-11-21T02:53:16;11.60;99.90
9223;DHT22;7557;51.698;3.942;2023-11-21T02:55:44;11.60;99.90
9223;DHT22;7557;51.698;3.942;2023-11-21T02:58:12;11.60;99.90
9223;DHT22;7557;51.698;3.942;2023-11-21T03:00:40;11.60;99.90
9223;DHT22;7557;51.698;3.942;2023-11-21T03:03:08;11.60;99.90
9223;DHT22;7557;51.698;3.942;2023-11-21T03:05:35;11.60;99.90
9223;DHT22;7557;51.698;3.942;2023-11-21T03:08:03;11.60;99.90
9223;DHT22;7557;51.698;3.942;2023-11-21T03:10:31;11.60;99.90
9223;DHT22;7557;51.698;3.942;2023-11-21T03:12:58;11.60;99.90
9223;DHT22;7557;51.698;3.942;2023-11-21T03:15:27;11.70;99.90
9223;DHT22;7557;51.698;3.942;2023-11-21T03:17:54;11.60;99.90
9223;DHT22;7557;51.698;3.942;2023-11-21T03:20:21;11.60;99.90
9223;DHT22;7557;51.698;3.942;2023-11-21T03:22:48;11.60;99.90
9223;DHT22;7557;51.698;3.942;2023-11-21T03:25:15;11.60;99.90
9223;DHT22;7557;51.698;3.942;2023-11-21T03:27:43;11.60;99.90
9223;DHT22;7557;51.698;3.942;2023-11-21T03:30:11;11.60;99.90
9223;DHT22;7557;51.698;3.942;2023-11-21T03:32:40;11.60;99.90
9223;DHT22;7557;51.698;3.942;2023-11-21T03:35:08;11.50;99.90
9223;DHT22;7557;51.698;3.942;2023-11-21T03:37:35;11.60;99.90
9223;DHT22;7557;51.698;3.942;2023-11-21T03:40:05;11.60;99.90
9223;DHT22;7557;51.698;3.942;2023-11-21T03:42:34;11.60;99.90
9223;DHT22;7557;51.698;3.942;2023-11-21T03:45:01;11.60;99.90
9223;DHT22;7557;51.698;3.942;2023-11-21T03:47:30;11.60;99.90
9223;DHT22;7557;51.698;3.942;2023-11-21T03:49:59;11.60;99.90
9223;DHT22;7557;51.698;3.942;2023-11-21T03:52:26;11.60;99.90
9223;DHT22;7557;51.698;3.942;2023-11-21T03:54:54;11.50;99.90
9223;DHT22;7557;51.698;3.942;2023-11-21T03:57:23;11.50;99.90
9223;DHT22;7557;51.698;3.942;2023-11-21T03:59:51;11.50;99.90
9223;DHT22;7557;51.698;3.942;2023-11-21T04:02:18;11.50;99.90
9223;DHT22;7557;51.698;3.942;2023-11-21T04:04:45;11.50;99.90
9223;DHT22;7557;51.698;3.942;2023-11-21T04:07:14;11.50;99.90
9223;DHT22;7557;51.698;3.942;2023-11-21T04:09:42;11.50;99.90
9223;DHT22;7557;51.698;3.942;2023-11-21T04:12:10;11.50;99.90
9223;DHT22;7557;51.698;3.942;2023-11-21T04:14:37;11.60;99.90
9223;DHT22;7557;51.698;3.942;2023-11-21T04:17:05;11.50;99.90
9223;DHT22;7557;51.698;3.942;2023-11-21T04:19:32;11.50;99.90
9223;DHT22;7557;51.698;3.942;2023-11-21T04:21:59;11.50;99.90
9223;DHT22;7557;51.698;3.942;2023-11-21T04:24:28;11.50;99.90
9223;DHT22;7557;51.698;3.942;2023-11-21T04:26:56;11.50;99.90
9223;DHT22;7557;51.698;3.942;2023-11-21T04:29:23;11.40;99.90
9223;DHT22;7557;51.698;3.942;2023-11-21T04:31:51;11.40;99.90
9223;DHT22;7557;51.698;3.942;2023-11-21T04:34:18;11.40;99.90
9223;DHT22;7557;51.698;3.942;2023-11-21T04:36:45;11.40;99.90
9223;DHT22;7557;51.698;3.942;2023-11-21T04:39:13;11.40;99.90
9223;DHT22;7557;51.698;3.942;2023-11-21T04:41:42;11.40;99.90
9223;DHT22;7557;51.698;3.942;2023-11-21T04:44:09;11.40;99.90
9223;DHT22;7557;51.698;3.942;2023-11-21T04:46:36;11.40;99.90
9223;DHT22;7557;51.698;3.942;2023-11-21T04:49:03;11.40;99.90
9223;DHT22;7557;51.698;3.942;2023-11-21T04:51:31;11.40;99.90
9223;DHT22;7557;51.698;3.942;2023-11-21T04:53:58;11.40;99.90
9223;DHT22;7557;51.698;3.942;2023-11-21T04:56:26;11.30;99.90
9223;DHT22;7557;51.698;3.942;2023-11-21T04:58:55;11.20;99.90
9223;DHT22;7557;51.698;3.942;2023-11-21T05:01:22;11.20;99.90
9223;DHT22;7557;51.698;3.942;2023-11-21T05:03:50;11.20;99.90
9223;DHT22;7557;51.698;3.942;2023-11-21T05:06:18;11.10;99.90
9223;DHT22;7557;51.698;3.942;2023-11-21T05:08:45;11.10;99.90
9223;DHT22;7557;51.698;3.942;2023-11-21T05:11:24;11.10;99.90
9223;DHT22;7557;51.698;3.942;2023-11-21T05:13:51;11.10;99.90
9223;DHT22;7557;51.698;3.942;2023-11-21T05:16:21;11.10;99.90
9223;DHT22;7557;51.698;3.942;2023-11-21T05:18:49;11.10;99.90
9223;DHT22;7557;51.698;3.942;2023-11-21T05:21:19;11.10;99.90
9223;DHT22;7557;51.698;3.942;2023-11-21T05:23:47;11.10;99.90
9223;DHT22;7557;51.698;3.942;2023-11-21T05:26:15;11.10;99.90
9223;DHT22;7557;51.698;3.942;2023-11-21T05:28:42;11.10;99.90
9223;DHT22;7557;51.698;3.942;2023-11-21T05:31:10;11.10;99.90
9223;DHT22;7557;51.698;3.942;2023-11-21T05:33:39;11.10;99.90
9223;DHT22;7557;51.698;3.942;2023-11-21T05:36:08;11.10;99.90
9223;DHT22;7557;51.698;3.942;2023-11-21T05:38:35;11.10;99.90
9223;DHT22;7557;51.698;3.942;2023-11-21T05:41:03;11.20;99.90
9223;DHT22;7557;51.698;3.942;2023-11-21T05:43:31;11.20;99.90
9223;DHT22;7557;51.698;3.942;2023-11-21T05:46:01;11.20;99.90
9223;DHT22;7557;51.698;3.942;2023-11-21T05:48:28;11.20;99.90
9223;DHT22;7557;51.698;3.942;2023-11-21T05:51:00;11.20;99.90
9223;DHT22;7557;51.698;3.942;2023-11-21T05:53:28;11.20;99.90
9223;DHT22;7557;51.698;3.942;2023-11-21T05:55:56;11.20;99.90
9223;DHT22;7557;51.698;3.942;2023-11-21T05:58:23;11.20;99.90
9223;DHT22;7557;51.698;3.942;2023-11-21T06:00:51;11.20;99.90
9223;DHT22;7557;51.698;3.942;2023-11-21T06:03:19;11.20;99.90
9223;DHT22;7557;51.698;3.942;2023-11-21T06:05:46;11.20;99.90
9223;DHT22;7557;51.698;3.942;2023-11-21T06:08:15;11.20;99.90
9223;DHT22;7557;51.698;3.942;2023-11-21T06:10:43;11.20;99.90
9223;DHT22;7557;51.698;3.942;2023-11-21T06:13:11;11.10;99.90
9223;DHT22;7557;51.698;3.942;2023-11-21T06:15:39;11.00;99.90
9223;DHT22;7557;51.698;3.942;2023-11-21T06:18:06;11.00;99.90
9223;DHT22;7557;51.698;3.942;2023-11-21T06:20:36;10.90;99.90
9223;DHT22;7557;51.698;3.942;2023-11-21T06:23:05;10.90;99.90
9223;DHT22;7557;51.698;3.942;2023-11-21T06:25:35;10.80;99.90
9223;DHT22;7557;51.698;3.942;2023-11-21T06:28:02;10.80;99.90
9223;DHT22;7557;51.698;3.942;2023-11-21T06:30:30;10.80;99.90
9223;DHT22;7557;51.698;3.942;2023-11-21T06:32:58;10.70;99.90
9223;DHT22;7557;51.698;3.942;2023-11-21T06:35:28;10.70;99.90
9223;DHT22;7557;51.698;3.942;2023-11-21T06:37:59;10.70;99.90
9223;DHT22;7557;51.698;3.942;2023-11-21T06:40:27;10.60;99.90
9223;DHT22;7557;51.698;3.942;2023-11-21T06:42:56;10.60;99.90
9223;DHT22;7557;51.698;3.942;2023-11-21T06:45:24;10.60;99.90
9223;DHT22;7557;51.698;3.942;2023-11-21T06:47:51;10.60;99.90
9223;DHT22;7557;51.698;3.942;2023-11-21T06:50:19;10.70;99.90
9223;DHT22;7557;51.698;3.942;2023-11-21T06:52:46;10.70;99.90
9223;DHT22;7557;51.698;3.942;2023-11-21T06:55:14;10.70;99.90
9223;DHT22;7557;51.698;3.942;2023-11-21T06:57:41;10.70;99.90
9223;DHT22;7557;51.698;3.942;2023-11-21T07:00:15;10.70;99.90
9223;DHT22;7557;51.698;3.942;2023-11-21T07:02:43;10.60;99.90
9223;DHT22;7557;51.698;3.942;2023-11-21T07:05:13;10.60;99.90
9223;DHT22;7557;51.698;3.942;2023-11-21T07:07:46;10.40;99.90
9223;DHT22;7557;51.698;3.942;2023-11-21T07:10:14;10.40;99.90
9223;DHT22;7557;51.698;3.942;2023-11-21T07:12:42;10.40;99.90
9223;DHT22;7557;51.698;3.942;2023-11-21T07:15:12;10.30;99.90
9223;DHT22;7557;51.698;3.942;2023-11-21T07:17:39;10.20;99.90
9223;DHT22;7557;51.698;3.942;2023-11-21T07:20:07;10.10;99.90
9223;DHT22;7557;51.698;3.942;2023-11-21T07:22:35;10.10;99.90
9223;DHT22;7557;51.698;3.942;2023-11-21T07:25:03;10.20;99.90
9223;DHT22;7557;51.698;3.942;2023-11-21T07:27:31;10.20;99.90
9223;DHT22;7557;51.698;3.942;2023-11-21T07:29:59;10.30;99.90
9223;DHT22;7557;51.698;3.942;2023-11-21T07:32:30;10.40;99.90
9223;DHT22;7557;51.698;3.942;2023-11-21T07:34:58;10.40;99.90
9223;DHT22;7557;51.698;3.942;2023-11-21T07:37:27;10.50;99.90
9223;DHT22;7557;51.698;3.942;2023-11-21T07:39:55;10.50;99.90
9223;DHT22;7557;51.698;3.942;2023-11-21T07:42:23;10.50;99.90
9223;DHT22;7557;51.698;3.942;2023-11-21T07:44:53;10.50;99.90
9223;DHT22;7557;51.698;3.942;2023-11-21T07:47:20;10.50;99.90
9223;DHT22;7557;51.698;3.942;2023-11-21T07:49:49;10.60;99.90
9223;DHT22;7557;51.698;3.942;2023-11-21T07:52:17;10.60;99.90
9223;DHT22;7557;51.698;3.942;2023-11-21T07:54:44;10.70;99.90
9223;DHT22;7557;51.698;3.942;2023-11-21T07:57:12;10.80;99.90
9223;DHT22;7557;51.698;3.942;2023-11-21T07:59:39;10.90;99.90
9223;DHT22;7557;51.698;3.942;2023-11-21T08:02:08;11.00;99.90
9223;DHT22;7557;51.698;3.942;2023-11-21T08:04:35;11.10;99.90
9223;DHT22;7557;51.698;3.942;2023-11-21T08:07:04;11.20;99.90
9223;DHT22;7557;51.698;3.942;2023-11-21T08:09:32;11.30;99.90
9223;DHT22;7557;51.698;3.942;2023-11-21T08:12:00;11.40;99.90
9223;DHT22;7557;51.698;3.942;2023-11-21T08:14:28;11.50;99.90
9223;DHT22;7557;51.698;3.942;2023-11-21T08:16:55;11.60;99.90
9223;DHT22;7557;51.698;3.942;2023-11-21T08:19:23;11.70;99.90
9223;DHT22;7557;51.698;3.942;2023-11-21T08:21:52;11.70;99.90
9223;DHT22;7557;51.698;3.942;2023-11-21T08:24:22;11.70;99.90
9223;DHT22;7557;51.698;3.942;2023-11-21T08:26:53;11.70;99.90
9223;DHT22;7557;51.698;3.942;2023-11-21T08:29:20;11.80;99.90
9223;DHT22;7557;51.698;3.942;2023-11-21T08:31:49;11.90;99.90
9223;DHT22;7557;51.698;3.942;2023-11-21T08:34:16;11.90;99.90
9223;DHT22;7557;51.698;3.942;2023-11-21T08:36:44;11.90;99.90
9223;DHT22;7557;51.698;3.942;2023-11-21T08:39:11;12.00;99.90
9223;DHT22;7557;51.698;3.942;2023-11-21T08:41:40;12.00;99.90
9223;DHT22;7557;51.698;3.942;2023-11-21T08:44:07;12.00;99.90
9223;DHT22;7557;51.698;3.942;2023-11-21T08:46:35;12.00;99.90
9223;DHT22;7557;51.698;3.942;2023-11-21T08:49:03;12.00;99.90
9223;DHT22;7557;51.698;3.942;2023-11-21T08:51:31;12.10;99.90
9223;DHT22;7557;51.698;3.942;2023-11-21T08:53:59;12.10;99.90
9223;DHT22;7557;51.698;3.942;2023-11-21T08:56:30;12.10;99.90
9223;DHT22;7557;51.698;3.942;2023-11-21T08:58:59;12.20;99.90
9223;DHT22;7557;51.698;3.942;2023-11-21T09:01:28;12.20;99.90
9223;DHT22;7557;51.698;3.942;2023-11-21T09:03:57;12.30;99.90
9223;DHT22;7557;51.698;3.942;2023-11-21T09:06:24;12.30;99.90
9223;DHT22;7557;51.698;3.942;2023-11-21T09:08:52;12.30;99.90
9223;DHT22;7557;51.698;3.942;2023-11-21T09:11:19;12.30;99.90
9223;DHT22;7557;51.698;3.942;2023-11-21T09:13:47;12.40;99.90
9223;DHT22;7557;51.698;3.942;2023-11-21T09:16:20;12.40;99.90
9223;DHT22;7557;51.698;3.942;2023-11-21T09:18:47;12.40;99.90
9223;DHT22;7557;51.698;3.942;2023-11-21T09:21:15;12.50;99.90
9223;DHT22;7557;51.698;3.942;2023-11-21T09:23:43;12.50;99.90
9223;DHT22;7557;51.698;3.942;2023-11-21T09:26:11;12.40;99.90
9223;DHT22;7557;51.698;3.942;2023-11-21T09:28:41;12.50;99.90
9223;DHT22;7557;51.698;3.942;2023-11-21T09:31:12;12.40;99.90
9223;DHT22;7557;51.698;3.942;2023-11-21T09:33:43;12.40;99.90
9223;DHT22;7557;51.698;3.942;2023-11-21T09:36:12;12.40;99.90
9223;DHT22;7557;51.698;3.942;2023-11-21T09:38:40;12.40;99.90
9223;DHT22;7557;51.698;3.942;2023-11-21T09:41:15;12.40;99.90
9223;DHT22;7557;51.698;3.942;2023-11-21T09:43:46;12.40;99.90
9223;DHT22;7557;51.698;3.942;2023-11-21T09:46:14;12.40;99.90
9223;DHT22;7557;51.698;3.942;2023-11-21T09:48:50;12.30;99.90
9223;DHT22;7557;51.698;3.942;2023-11-21T09:51:19;12.30;99.90
9223;DHT22;7557;51.698;3.942;2023-11-21T09:53:50;12.30;99.90
9223;DHT22;7557;51.698;3.942;2023-11-21T09:56:19;12.40;99.90
9223;DHT22;7557;51.698;3.942;2023-11-21T09:58:52;12.40;99.90
9223;DHT22;7557;51.698;3.942;2023-11-21T10:01:23;12.40;99.90
9223;DHT22;7557;51.698;3.942;2023-11-21T10:03:53;12.40;99.90
9223;DHT22;7557;51.698;3.942;2023-11-21T10:06:22;12.40;99.90
9223;DHT22;7557;51.698;3.942;2023-11-21T10:08:52;12.40;99.90
9223;DHT22;7557;51.698;3.942;2023-11-21T10:11:25;12.50;99.90
9223;DHT22;7557;51.698;3.942;2023-11-21T10:13:54;12.40;99.90
9223;DHT22;7557;51.698;3.942;2023-11-21T10:16:25;12.40;99.90
9223;DHT22;7557;51.698;3.942;2023-11-21T10:18:58;12.40;99.90
9223;DHT22;7557;51.698;3.942;2023-11-21T10:21:26;12.40;99.90
9223;DHT22;7557;51.698;3.942;2023-11-21T10:23:54;12.40;99.90
9223;DHT22;7557;51.698;3.942;2023-11-21T10:26:23;12.40;99.90
9223;DHT22;7557;51.698;3.942;2023-11-21T10:28:56;12.30;99.90
9223;DHT22;7557;51.698;3.942;2023-11-21T10:31:23;12.30;99.90
9223;DHT22;7557;51.698;3.942;2023-11-21T10:33:51;12.30;99.90
9223;DHT22;7557;51.698;3.942;2023-11-21T10:36:27;12.30;99.90
9223;DHT22;7557;51.698;3.942;2023-11-21T10:38:55;12.30;99.90
9223;DHT22;7557;51.698;3.942;2023-11-21T10:41:22;12.30;99.90
9223;DHT22;7557;51.698;3.942;2023-11-21T10:43:53;12.30;99.90
9223;DHT22;7557;51.698;3.942;2023-11-21T10:46:22;12.30;99.90
9223;DHT22;7557;51.698;3.942;2023-11-21T10:48:53;12.20;99.90
9223;DHT22;7557;51.698;3.942;2023-11-21T10:51:22;12.30;99.90
9223;DHT22;7557;51.698;3.942;2023-11-21T10:53:51;12.30;99.90
9223;DHT22;7557;51.698;3.942;2023-11-21T10:56:19;12.30;99.90
9223;DHT22;7557;51.698;3.942;2023-11-21T10:58:53;12.30;99.90
9223;DHT22;7557;51.698;3.942;2023-11-21T11:01:20;12.30;99.90
9223;DHT22;7557;51.698;3.942;2023-11-21T11:03:50;12.30;99.90
9223;DHT22;7557;51.698;3.942;2023-11-21T11:06:21;12.30;99.90
9223;DHT22;7557;51.698;3.942;2023-11-21T11:08:51;12.30;99.90
9223;DHT22;7557;51.698;3.942;2023-11-21T11:11:18;12.20;99.90
9223;DHT22;7557;51.698;3.942;2023-11-21T11:13:46;12.30;99.90
9223;DHT22;7557;51.698;3.942;2023-11-21T11:16:14;12.30;99.90
9223;DHT22;7557;51.698;3.942;2023-11-21T11:18:44;12.30;99.90
9223;DHT22;7557;51.698;3.942;2023-11-21T11:21:26;12.20;99.90
9223;DHT22;7557;51.698;3.942;2023-11-21T11:24:13;12.20;99.90
9223;DHT22;7557;51.698;3.942;2023-11-21T11:26:47;12.20;99.90
9223;DHT22;7557;51.698;3.942;2023-11-21T11:29:26;12.20;99.90
9223;DHT22;7557;51.698;3.942;2023-11-21T11:32:08;12.20;99.90
9223;DHT22;7557;51.698;3.942;2023-11-21T11:34:44;12.20;99.90
9223;DHT22;7557;51.698;3.942;2023-11-21T11:37:13;12.20;99.90
9223;DHT22;7557;51.698;3.942;2023-11-21T11:39:43;12.30;99.90
9223;DHT22;7557;51.698;3.942;2023-11-21T11:42:13;12.40;99.90
9223;DHT22;7557;51.698;3.942;2023-11-21T11:44:51;12.50;99.90
9223;DHT22;7557;51.698;3.942;2023-11-21T11:47:23;12.60;99.90
9223;DHT22;7557;51.698;3.942;2023-11-21T11:49:59;12.60;99.90
9223;DHT22;7557;51.698;3.942;2023-11-21T11:52:34;12.70;99.90
9223;DHT22;7557;51.698;3.942;2023-11-21T11:55:06;12.70;99.90
9223;DHT22;7557;51.698;3.942;2023-11-21T11:57:36;12.70;99.90
9223;DHT22;7557;51.698;3.942;2023-11-21T12:00:09;12.70;99.90
9223;DHT22;7557;51.698;3.942;2023-11-21T12:02:38;12.70;99.90
9223;DHT22;7557;51.698;3.942;2023-11-21T12:05:09;12.60;99.90
9223;DHT22;7557;51.698;3.942;2023-11-21T12:07:52;12.60;99.90
9223;DHT22;7557;51.698;3.942;2023-11-21T12:10:23;12.50;99.90
9223;DHT22;7557;51.698;3.942;2023-11-21T12:12:52;12.50;99.90
9223;DHT22;7557;51.698;3.942;2023-11-21T12:15:21;12.50;99.90
9223;DHT22;7557;51.698;3.942;2023-11-21T12:17:49;12.60;99.90
9223;DHT22;7557;51.698;3.942;2023-11-21T12:20:19;12.60;99.90
9223;DHT22;7557;51.698;3.942;2023-11-21T12:22:48;12.60;99.90
9223;DHT22;7557;51.698;3.942;2023-11-21T12:25:16;12.50;99.90
9223;DHT22;7557;51.698;3.942;2023-11-21T12:27:47;12.50;99.90
9223;DHT22;7557;51.698;3.942;2023-11-21T12:30:16;12.60;99.90
9223;DHT22;7557;51.698;3.942;2023-11-21T12:32:44;12.60;99.90
9223;DHT22;7557;51.698;3.942;2023-11-21T12:35:13;12.50;99.90
9223;DHT22;7557;51.698;3.942;2023-11-21T12:37:42;12.50;99.90
9223;DHT22;7557;51.698;3.942;2023-11-21T12:40:10;12.50;99.90
9223;DHT22;7557;51.698;3.942;2023-11-21T12:42:41;12.50;99.90
9223;DHT22;7557;51.698;3.942;2023-11-21T12:45:20;12.50;99.90
9223;DHT22;7557;51.698;3.942;2023-11-21T12:47:48;12.50;99.90
9223;DHT22;7557;51.698;3.942;2023-11-21T12:50:19;12.50;99.90
9223;DHT22;7557;51.698;3.942;2023-11-21T12:52:52;12.50;99.90
9223;DHT22;7557;51.698;3.942;2023-11-21T12:55:22;12.50;99.90
9223;DHT22;7557;51.698;3.942;2023-11-21T12:57:51;12.60;99.90
9223;DHT22;7557;51.698;3.942;2023-11-21T13:00:29;12.60;99.90
9223;DHT22;7557;51.698;3.942;2023-11-21T13:02:59;12.70;99.90
9223;DHT22;7557;51.698;3.942;2023-11-21T13:05:27;12.70;99.90
9223;DHT22;7557;51.698;3.942;2023-11-21T13:07:56;12.70;99.90
9223;DHT22;7557;51.698;3.942;2023-11-21T13:10:25;12.70;99.90
9223;DHT22;7557;51.698;3.942;2023-11-21T13:12:57;12.70;99.90
9223;DHT22;7557;51.698;3.942;2023-11-21T13:15:27;12.70;99.90
9223;DHT22;7557;51.698;3.942;2023-11-21T13:17:57;12.70;99.90
9223;DHT22;7557;51.698;3.942;2023-11-21T13:20:25;12.60;99.90
9223;DHT22;7557;51.698;3.942;2023-11-21T13:22:54;12.60;99.90
9223;DHT22;7557;51.698;3.942;2023-11-21T13:25:25;12.60;99.90
9223;DHT22;7557;51.698;3.942;2023-11-21T13:27:53;12.60;99.90
9223;DHT22;7557;51.698;3.942;2023-11-21T13:30:21;12.60;99.90
9223;DHT22;7557;51.698;3.942;2023-11-21T13:32:54;12.70;99.90
9223;DHT22;7557;51.698;3.942;2023-11-21T13:35:23;12.70;99.90
9223;DHT22;7557;51.698;3.942;2023-11-21T13:37:57;12.60;99.90
9223;DHT22;7557;51.698;3.942;2023-11-21T13:40:30;12.60;99.90
9223;DHT22;7557;51.698;3.942;2023-11-21T13:42:57;12.70;99.90
9223;DHT22;7557;51.698;3.942;2023-11-21T13:45:26;12.70;99.90
9223;DHT22;7557;51.698;3.942;2023-11-21T13:47:58;12.70;99.90
9223;DHT22;7557;51.698;3.942;2023-11-21T13:50:25;12.70;99.90
9223;DHT22;7557;51.698;3.942;2023-11-21T13:52:58;12.70;99.90
9223;DHT22;7557;51.698;3.942;2023-11-21T13:55:34;12.70;99.90
9223;DHT22;7557;51.698;3.942;2023-11-21T13:58:02;12.70;99.90
9223;DHT22;7557;51.698;3.942;2023-11-21T14:00:35;12.80;99.90
9223;DHT22;7557;51.698;3.942;2023-11-21T14:03:18;12.80;99.90
9223;DHT22;7557;51.698;3.942;2023-11-21T14:05:47;12.80;99.90
9223;DHT22;7557;51.698;3.942;2023-11-21T14:08:18;12.80;99.90
9223;DHT22;7557;51.698;3.942;2023-11-21T14:10:49;12.70;99.90
9223;DHT22;7557;51.698;3.942;2023-11-21T14:13:21;12.70;99.90
9223;DHT22;7557;51.698;3.942;2023-11-21T14:15:49;12.60;99.90
9223;DHT22;7557;51.698;3.942;2023-11-21T14:18:25;12.60;99.90
9223;DHT22;7557;51.698;3.942;2023-11-21T14:20:56;12.50;99.90
9223;DHT22;7557;51.698;3.942;2023-11-21T14:23:23;12.50;99.90
9223;DHT22;7557;51.698;3.942;2023-11-21T14:25:51;12.50;99.90
9223;DHT22;7557;51.698;3.942;2023-11-21T14:28:19;12.50;99.90
9223;DHT22;7557;51.698;3.942;2023-11-21T14:30:47;12.50;99.90
9223;DHT22;7557;51.698;3.942;2023-11-21T14:33:14;12.50;99.90
9223;DHT22;7557;51.698;3.942;2023-11-21T14:35:43;12.60;99.90
9223;DHT22;7557;51.698;3.942;2023-11-21T14:38:12;12.60;99.90
9223;DHT22;7557;51.698;3.942;2023-11-21T14:40:40;12.60;99.90
9223;DHT22;7557;51.698;3.942;2023-11-21T14:43:08;12.60;99.90
9223;DHT22;7557;51.698;3.942;2023-11-21T14:45:35;12.60;99.90
9223;DHT22;7557;51.698;3.942;2023-11-21T14:48:03;12.60;99.90
9223;DHT22;7557;51.698;3.942;2023-11-21T14:50:43;12.60;99.90
9223;DHT22;7557;51.698;3.942;2023-11-21T14:53:35;12.60;99.90
9223;DHT22;7557;51.698;3.942;2023-11-21T14:56:11;12.60;99.90
9223;DHT22;7557;51.698;3.942;2023-11-21T14:58:47;12.60;99.90
9223;DHT22;7557;51.698;3.942;2023-11-21T15:01:13;12.50;99.90
9223;DHT22;7557;51.698;3.942;2023-11-21T15:03:49;12.50;99.90
9223;DHT22;7557;51.698;3.942;2023-11-21T15:06:20;12.40;99.90
9223;DHT22;7557;51.698;3.942;2023-11-21T15:08:53;12.40;99.90
9223;DHT22;7557;51.698;3.942;2023-11-21T15:11:45;12.30;99.90
9223;DHT22;7557;51.698;3.942;2023-11-21T15:14:15;12.20;99.90
9223;DHT22;7557;51.698;3.942;2023-11-21T15:16:47;12.10;99.90
9223;DHT22;7557;51.698;3.942;2023-11-21T15:19:18;12.00;99.90
9223;DHT22;7557;51.698;3.942;2023-11-21T15:21:53;11.90;99.90
9223;DHT22;7557;51.698;3.942;2023-11-21T15:24:22;11.90;99.90
9223;DHT22;7557;51.698;3.942;2023-11-21T15:26:50;11.90;99.90
9223;DHT22;7557;51.698;3.942;2023-11-21T15:29:18;11.90;99.90
9223;DHT22;7557;51.698;3.942;2023-11-21T15:31:47;11.90;99.90
9223;DHT22;7557;51.698;3.942;2023-11-21T15:34:15;12.00;99.90
9223;DHT22;7557;51.698;3.942;2023-11-21T15:36:43;12.00;99.90
9223;DHT22;7557;51.698;3.942;2023-11-21T15:39:18;12.00;99.90
9223;DHT22;7557;51.698;3.942;2023-11-21T15:41:47;12.00;99.90
9223;DHT22;7557;51.698;3.942;2023-11-21T15:44:15;12.00;99.90
9223;DHT22;7557;51.698;3.942;2023-11-21T15:46:42;12.00;99.90
9223;DHT22;7557;51.698;3.942;2023-11-21T15:49:10;11.90;99.90
9223;DHT22;7557;51.698;3.942;2023-11-21T15:51:48;11.90;99.90
9223;DHT22;7557;51.698;3.942;2023-11-21T15:54:23;11.80;99.90
9223;DHT22;7557;51.698;3.942;2023-11-21T15:56:51;11.80;99.90
9223;DHT22;7557;51.698;3.942;2023-11-21T15:59:21;11.70;99.90
9223;DHT22;7557;51.698;3.942;2023-11-21T16:01:50;11.70;99.90
9223;DHT22;7557;51.698;3.942;2023-11-21T16:04:17;11.70;99.90
9223;DHT22;7557;51.698;3.942;2023-11-21T16:06:47;11.70;99.90
9223;DHT22;7557;51.698;3.942;2023-11-21T16:09:16;11.70;99.90
9223;DHT22;7557;51.698;3.942;2023-11-21T16:11:50;11.70;99.90
9223;DHT22;7557;51.698;3.942;2023-11-21T16:14:22;11.80;99.90
9223;DHT22;7557;51.698;3.942;2023-11-21T16:16:52;11.80;99.90
9223;DHT22;7557;51.698;3.942;2023-11-21T16:19:19;11.70;99.90